Le Moyen, Louisiana
Current Conditions -  °F | °C
As of 2:35 AM on Friday 31 Oct 2014 (Local Time) from KOPL Reporting Station
Scattered Clouds Scattered Clouds  
Wind Chill: 47°   Ceiling: Unl
Heat Index: 47°   Visibility: 10mi
Dew Point: 47°   Wind: 0mph
Humidity: 97%   Direction: NA
Pressure: 30.07"   Gusts: NA
Location:  30.8264°N, 92.0178°W
Report Text: KOPL 310735Z AUTO 00000KT 10SM SCT080 09/08 A3007 RMK AO2 T00850081
Loading
Personal Weather Stations






























Interactive Weather Map
Tropical Storm Tracking
New forecast layout! Learn more

10-Day Weather Forecast

Advertisements
Track Severe Weather on mobile